createdAt,value
2022-10-29T00:00:25.812Z,61.01
2022-10-29T00:03:13.728Z,65.39
2022-10-29T00:05:41.719Z,64.11
2022-10-29T00:08:09.795Z,59.86
2022-10-29T00:10:37.665Z,55.60
2022-10-29T00:13:05.951Z,55.07
2022-10-29T00:15:33.883Z,56.28
2022-10-29T00:18:01.605Z,57.42
2022-10-29T00:20:29.483Z,58.46
2022-10-29T00:22:57.607Z,59.26
2022-10-29T00:25:25.592Z,60.08
2022-10-29T00:27:53.368Z,61.00
2022-10-29T00:30:21.142Z,61.46
2022-10-29T00:32:49.196Z,65.40
2022-10-29T00:35:17.780Z,65.28
2022-10-29T00:37:45.645Z,60.62
2022-10-29T00:40:13.669Z,55.84
2022-10-29T00:42:41.658Z,55.12
2022-10-29T00:45:18.226Z,56.28
2022-10-29T00:47:50.104Z,57.54
2022-10-29T00:50:19.426Z,58.68
2022-10-29T00:52:49.384Z,59.57
2022-10-29T00:55:19.209Z,60.40
2022-10-29T00:57:50.428Z,61.07
2022-10-29T01:00:20.708Z,64.93
2022-10-29T01:02:48.928Z,64.90
2022-10-29T01:05:22.165Z,60.53
2022-10-29T01:07:50.314Z,55.76
2022-10-29T01:10:23.092Z,55.24
2022-10-29T01:12:54.112Z,56.38
2022-10-29T01:16:08.795Z,57.64
2022-10-29T01:18:45.872Z,58.56
2022-10-29T01:21:22.528Z,59.84
2022-10-29T01:24:08.789Z,60.54
2022-10-29T01:27:07.795Z,61.07
2022-10-29T01:30:02.134Z,65.76
2022-10-29T01:32:53.495Z,63.68
2022-10-29T01:35:34.528Z,59.04
2022-10-29T01:38:10.447Z,55.27
2022-10-29T01:40:49.991Z,56.08
2022-10-29T01:43:33.800Z,57.48
2022-10-29T01:46:10.937Z,58.97
2022-10-29T01:48:43.752Z,60.01
2022-10-29T01:51:20.762Z,60.87
2022-10-29T01:53:49.074Z,61.63
2022-10-29T01:56:20.330Z,65.43
2022-10-29T01:58:51.394Z,65.00
2022-10-29T02:01:54.804Z,60.74
2022-10-29T02:04:58.009Z,56.03
2022-10-29T02:07:50.319Z,56.65
2022-10-29T02:10:21.317Z,58.01
2022-10-29T02:12:51.608Z,59.06
2022-10-29T02:15:42.659Z,59.92
2022-10-29T02:18:10.643Z,60.46
2022-10-29T02:20:42.919Z,61.39
2022-10-29T02:23:10.951Z,65.16
2022-10-29T02:25:39.111Z,65.14
2022-10-29T02:28:07.121Z,61.02
2022-10-29T02:30:34.948Z,56.54
2022-10-29T02:33:02.710Z,55.86
2022-10-29T02:35:30.557Z,56.93
2022-10-29T02:37:58.390Z,58.15
2022-10-29T02:40:26.143Z,59.19
2022-10-29T02:42:54.748Z,60.02
2022-10-29T02:45:22.793Z,60.80
2022-10-29T02:47:50.571Z,61.34
2022-10-29T02:50:18.369Z,65.22
2022-10-29T02:52:46.146Z,64.71
2022-10-29T02:55:13.962Z,60.65
2022-10-29T02:57:45.695Z,56.24
2022-10-29T03:00:14.219Z,55.64
2022-10-29T03:02:42.095Z,57.20
2022-10-29T03:05:10.172Z,58.43
2022-10-29T03:07:38.672Z,59.38
2022-10-29T03:10:07.974Z,60.21
2022-10-29T03:12:38.174Z,61.05
2022-10-29T03:15:06.520Z,64.54
2022-10-29T03:17:34.626Z,64.63
2022-10-29T03:20:02.464Z,60.19
2022-10-29T03:22:30.483Z,56.14
2022-10-29T03:24:58.359Z,55.78
2022-10-29T03:27:26.727Z,57.46
2022-10-29T03:29:54.589Z,58.39
2022-10-29T03:32:22.355Z,59.68
2022-10-29T03:34:50.149Z,60.90
2022-10-29T03:41:20.835Z,62.92
2022-10-29T03:43:53.342Z,57.80
2022-10-29T03:46:22.924Z,57.34
2022-10-29T03:49:02.134Z,58.45
2022-10-29T04:03:02.288Z,59.32
2022-10-29T04:05:41.772Z,60.52
2022-10-29T04:09:07.217Z,60.78
2022-10-29T04:11:39.376Z,65.84
2022-10-29T04:17:51.794Z,59.19
2022-10-29T04:21:05.968Z,55.19
2022-10-29T04:41:13.678Z,57.80
2022-10-29T04:44:39.198Z,58.63
2022-10-29T04:47:23.879Z,59.90
2022-10-29T04:55:08.676Z,64.81
2022-10-29T04:57:51.435Z,61.10
2022-10-29T05:00:56.753Z,55.99
2022-10-29T05:03:38.862Z,56.27
2022-10-29T05:06:17.067Z,57.61
2022-10-29T05:09:01.733Z,58.83
2022-10-29T05:11:57.484Z,59.95
2022-10-29T05:14:23.609Z,60.66
2022-10-29T05:16:59.899Z,64.19
2022-10-29T05:19:28.517Z,64.93
2022-10-29T05:22:19.926Z,60.27
2022-10-29T05:29:00.038Z,55.81
2022-10-29T05:31:36.413Z,57.45
2022-10-29T05:34:08.364Z,58.73
2022-10-29T05:36:37.994Z,59.84
2022-10-29T05:39:08.271Z,60.66
2022-10-29T05:41:36.371Z,61.35
2022-10-29T05:44:04.428Z,64.52
2022-10-29T05:46:32.706Z,66.17
2022-10-29T05:49:00.684Z,62.24
2022-10-29T05:51:28.617Z,57.99
2022-10-29T05:53:56.840Z,56.79
2022-10-29T05:56:24.825Z,58.04
2022-10-29T05:58:53.965Z,59.17
2022-10-29T06:01:22.496Z,60.40
2022-10-29T06:03:50.689Z,61.00
2022-10-29T06:06:18.802Z,66.04
2022-10-29T06:08:46.842Z,65.50
2022-10-29T06:11:14.864Z,61.29
2022-10-29T06:13:46.916Z,57.31
2022-10-29T06:16:15.071Z,57.11
2022-10-29T06:18:48.601Z,58.64
2022-10-29T06:21:16.949Z,60.01
2022-10-29T06:23:47.175Z,60.61
2022-10-29T06:26:15.748Z,61.37
2022-10-29T06:28:43.887Z,64.22
2022-10-29T06:31:15.476Z,65.01
2022-10-29T06:33:43.562Z,60.68
2022-10-29T06:36:15.104Z,56.71
2022-10-29T06:38:46.016Z,56.24
2022-10-29T06:41:14.652Z,57.30
2022-10-29T06:43:44.539Z,58.94
2022-10-29T06:46:12.581Z,60.14
2022-10-29T06:48:41.370Z,61.08
2022-10-29T06:51:09.591Z,65.09
2022-10-29T06:53:37.759Z,64.65
2022-10-29T06:56:06.071Z,61.04
2022-10-29T06:58:34.391Z,56.72
2022-10-29T07:01:04.039Z,56.39
2022-10-29T07:03:36.056Z,58.02
2022-10-29T07:06:04.434Z,58.88
2022-10-29T07:08:33.674Z,59.84
2022-10-29T07:11:03.732Z,60.62
2022-10-29T07:13:32.231Z,61.40
2022-10-29T07:16:02.194Z,65.80
2022-10-29T07:18:37.349Z,64.74
2022-10-29T07:21:07.026Z,60.69
2022-10-29T07:23:39.061Z,56.95
2022-10-29T07:26:09.735Z,56.24
2022-10-29T07:28:37.960Z,57.02
2022-10-29T07:31:08.391Z,58.55
2022-10-29T07:33:38.624Z,59.60
2022-10-29T07:36:07.032Z,60.38
2022-10-29T07:38:34.957Z,61.13
2022-10-29T07:41:03.646Z,64.26
2022-10-29T07:43:31.831Z,64.19
2022-10-29T07:46:01.301Z,60.65
2022-10-29T07:48:34.498Z,56.63
2022-10-29T07:51:06.769Z,55.96
2022-10-29T07:53:39.800Z,57.01
2022-10-29T07:56:12.029Z,57.89
2022-10-29T07:58:47.754Z,59.07
2022-10-29T08:01:17.878Z,60.04
2022-10-29T08:03:51.605Z,60.77
2022-10-29T08:06:36.915Z,61.63
2022-10-29T08:09:47.087Z,66.75
2022-10-29T08:13:00.386Z,62.45
2022-10-29T08:15:39.406Z,57.06
2022-10-29T08:18:31.220Z,55.88
2022-10-29T08:21:05.967Z,56.12
2022-10-29T08:23:50.066Z,57.16
2022-10-29T08:26:23.278Z,57.89
2022-10-29T08:29:25.005Z,59.29
2022-10-29T08:31:52.752Z,59.68
2022-10-29T08:34:20.494Z,60.77
2022-10-29T08:36:48.241Z,60.49
2022-10-29T08:39:16.085Z,60.95
2022-10-29T08:42:18.449Z,61.80
2022-10-29T08:45:31.448Z,64.59
2022-10-29T08:48:11.542Z,61.51
2022-10-29T08:50:44.197Z,56.77
2022-10-29T08:53:23.644Z,55.99
2022-10-29T08:55:51.793Z,56.73
2022-10-29T08:58:38.732Z,58.93
2022-10-29T09:01:12.854Z,58.06
2022-10-29T09:03:40.949Z,60.00
2022-10-29T09:06:15.324Z,60.49
2022-10-29T09:08:52.383Z,60.47
2022-10-29T09:11:20.108Z,59.80
2022-10-29T09:14:07.909Z,59.51
2022-10-29T09:16:43.071Z,59.30
2022-10-29T09:19:28.951Z,59.64
2022-10-29T09:22:06.416Z,59.94
2022-10-29T09:24:43.207Z,58.65
2022-10-29T09:27:18.327Z,58.95
2022-10-29T09:29:58.204Z,58.86
2022-10-29T09:32:48.259Z,58.55
2022-10-29T09:35:18.390Z,58.75
2022-10-29T09:37:49.159Z,58.52
2022-10-29T09:40:32.282Z,58.18
2022-10-29T09:43:37.760Z,57.08
2022-10-29T09:46:12.022Z,57.48
2022-10-29T09:48:49.621Z,56.64
2022-10-29T09:51:32.237Z,57.24
2022-10-29T09:54:00.334Z,57.08
2022-10-29T09:56:28.087Z,57.06
2022-10-29T09:59:21.151Z,56.86
2022-10-29T10:01:49.020Z,57.45
2022-10-29T10:04:31.114Z,57.62
2022-10-29T10:07:06.101Z,57.48
2022-10-29T10:09:57.092Z,56.74
2022-10-29T10:12:28.223Z,56.76
2022-10-29T10:15:03.439Z,56.38
2022-10-29T10:18:04.661Z,56.00
2022-10-29T10:20:38.671Z,55.12
2022-10-29T10:23:22.900Z,54.45
2022-10-29T10:25:52.902Z,53.74
2022-10-29T10:28:29.624Z,53.20
2022-10-29T10:31:13.930Z,52.68
2022-10-29T10:33:49.492Z,52.00
2022-10-29T10:36:18.949Z,52.07
2022-10-29T10:38:52.261Z,52.32
2022-10-29T10:41:32.344Z,52.27
2022-10-29T10:44:02.245Z,51.98
2022-10-29T10:46:36.018Z,51.96
2022-10-29T10:49:13.185Z,51.65
2022-10-29T10:51:52.483Z,51.10
2022-10-29T10:54:36.951Z,50.61
2022-10-29T10:57:11.008Z,50.17
2022-10-29T11:00:02.787Z,49.91
2022-10-29T11:02:35.536Z,49.00
2022-10-29T11:05:16.843Z,49.38
2022-10-29T11:07:49.506Z,49.15
2022-10-29T11:10:18.706Z,48.33
2022-10-29T11:12:53.675Z,48.26
2022-10-29T11:15:31.050Z,47.55
2022-10-29T11:20:55.532Z,47.32
2022-10-29T11:23:49.468Z,47.60
2022-10-29T11:26:26.249Z,47.84
2022-10-29T11:29:03.360Z,48.00
2022-10-29T11:32:05.237Z,47.67
2022-10-29T11:34:53.165Z,48.19
2022-10-29T11:37:26.876Z,48.19
2022-10-29T11:40:04.675Z,48.23
2022-10-29T11:42:32.660Z,48.46
2022-10-29T11:45:00.707Z,48.38
2022-10-29T11:47:44.976Z,48.47
2022-10-29T11:50:31.684Z,48.17
2022-10-29T11:53:02.796Z,48.00
2022-10-29T11:55:40.697Z,47.66
2022-10-29T11:58:23.061Z,47.95
2022-10-29T12:01:00.180Z,47.84
2022-10-29T12:03:46.466Z,47.70
2022-10-29T12:06:14.328Z,47.30
2022-10-29T12:08:54.052Z,46.54
2022-10-29T12:11:37.782Z,47.12
2022-10-29T12:14:30.173Z,46.92
2022-10-29T12:16:57.899Z,47.43
2022-10-29T12:19:53.999Z,47.80
2022-10-29T12:22:53.043Z,48.23
2022-10-29T12:25:30.029Z,48.53
2022-10-29T12:28:22.081Z,48.91
2022-10-29T12:30:59.134Z,49.27
2022-10-29T12:33:33.763Z,49.20
2022-10-29T12:36:34.090Z,49.07
2022-10-29T12:39:02.539Z,48.82
2022-10-29T12:41:36.080Z,48.32
2022-10-29T12:44:23.243Z,48.14
2022-10-29T12:47:00.224Z,47.80
2022-10-29T12:49:58.464Z,47.43
2022-10-29T12:52:38.457Z,47.71
2022-10-29T12:55:07.768Z,47.87
2022-10-29T12:57:36.287Z,48.09
2022-10-29T13:00:27.308Z,48.05
2022-10-29T13:02:55.930Z,48.52
2022-10-29T13:05:27.181Z,48.95
2022-10-29T13:08:04.215Z,49.31
2022-10-29T13:10:35.002Z,49.57
2022-10-29T13:13:24.807Z,49.74
2022-10-29T13:16:04.531Z,49.59
2022-10-29T13:18:49.721Z,48.92
2022-10-29T13:22:09.709Z,48.14
2022-10-29T13:24:37.600Z,47.71
2022-10-29T13:27:28.107Z,47.00
2022-10-29T13:30:27.654Z,46.90
2022-10-29T13:32:56.650Z,46.85
2022-10-29T13:35:24.838Z,46.81
2022-10-29T13:38:02.873Z,47.23
2022-10-29T13:40:30.816Z,47.68
2022-10-29T13:43:03.852Z,48.08
2022-10-29T13:45:33.200Z,48.58
2022-10-29T13:48:04.940Z,49.09
2022-10-29T13:50:35.632Z,49.54
2022-10-29T13:53:10.692Z,49.64
2022-10-29T13:55:44.456Z,50.01
2022-10-29T13:58:29.341Z,50.01
2022-10-29T14:00:58.000Z,49.60
2022-10-29T14:03:52.294Z,49.67
2022-10-29T14:06:28.062Z,49.96
2022-10-29T14:09:13.258Z,50.19
2022-10-29T14:11:45.460Z,50.11
2022-10-29T14:14:31.361Z,49.74
2022-10-29T14:17:13.554Z,48.87
2022-10-29T14:19:49.887Z,48.08
2022-10-29T14:22:18.539Z,47.48
2022-10-29T14:24:46.428Z,46.79
2022-10-29T14:27:15.356Z,46.81
2022-10-29T14:29:43.493Z,47.04
2022-10-29T14:32:19.191Z,46.93
2022-10-29T14:34:51.073Z,46.37
2022-10-29T14:37:51.125Z,46.20
2022-10-29T14:40:22.002Z,46.01
2022-10-29T14:42:55.145Z,45.74
2022-10-29T14:45:28.849Z,46.02
2022-10-29T14:48:09.792Z,46.49
2022-10-29T14:50:37.626Z,46.71
2022-10-29T14:53:07.975Z,47.20
2022-10-29T14:55:42.092Z,47.63
2022-10-29T14:58:21.858Z,48.09
2022-10-29T15:00:55.555Z,48.71
2022-10-29T15:03:24.992Z,49.53
2022-10-29T15:06:13.200Z,50.41
2022-10-29T15:08:43.397Z,50.98
2022-10-29T15:12:02.182Z,52.00
2022-10-29T15:14:37.618Z,52.83
2022-10-29T15:17:18.922Z,53.83
2022-10-29T15:19:47.027Z,54.70
2022-10-29T15:22:29.539Z,55.40
2022-10-29T15:24:57.676Z,55.95
2022-10-29T15:27:26.190Z,56.78
2022-10-29T15:29:54.197Z,57.51
2022-10-29T15:32:24.138Z,58.16
2022-10-29T15:34:56.144Z,58.44
2022-10-29T15:37:40.130Z,58.79
2022-10-29T15:40:12.183Z,59.23
2022-10-29T15:42:40.911Z,60.38
2022-10-29T15:45:08.822Z,61.15
2022-10-29T15:47:38.937Z,61.74
2022-10-29T15:50:13.727Z,61.98
2022-10-29T15:52:52.817Z,66.83
2022-10-29T15:55:28.085Z,65.61
2022-10-29T15:58:02.547Z,60.93
2022-10-29T16:00:31.300Z,56.85
2022-10-29T16:03:23.378Z,56.40
2022-10-29T16:05:54.315Z,56.83
2022-10-29T16:08:31.811Z,57.87
2022-10-29T16:11:03.058Z,58.92
2022-10-29T16:13:31.840Z,59.55
2022-10-29T16:15:59.715Z,60.32
2022-10-29T16:18:27.738Z,61.21
2022-10-29T16:21:00.839Z,61.82
2022-10-29T16:23:28.681Z,65.56
2022-10-29T16:25:56.761Z,64.89
2022-10-29T16:28:24.885Z,61.62
2022-10-29T16:30:54.808Z,57.61
2022-10-29T16:33:22.601Z,56.40
2022-10-29T16:35:50.447Z,57.53
2022-10-29T16:38:19.107Z,58.69
2022-10-29T16:40:47.092Z,59.48
2022-10-29T16:43:14.864Z,60.31
2022-10-29T16:45:42.735Z,60.99
2022-10-29T16:48:10.626Z,61.58
2022-10-29T16:50:38.443Z,65.88
2022-10-29T16:53:08.044Z,64.92
2022-10-29T16:55:37.998Z,61.71
2022-10-29T16:58:12.075Z,58.33
2022-10-29T17:00:39.944Z,57.36
2022-10-29T17:03:11.701Z,58.23
2022-10-29T17:05:42.063Z,59.32
2022-10-29T17:08:10.422Z,60.34
2022-10-29T17:10:39.121Z,61.16
2022-10-29T17:13:09.089Z,64.69
2022-10-29T17:15:39.872Z,64.63
2022-10-29T17:18:08.014Z,61.54
2022-10-29T17:20:36.053Z,57.89
2022-10-29T17:23:03.810Z,57.14
2022-10-29T17:25:31.727Z,58.21
2022-10-29T17:27:59.962Z,59.26
2022-10-29T17:30:28.132Z,60.21
2022-10-29T17:32:56.376Z,61.21
2022-10-29T17:35:24.420Z,64.76
2022-10-29T17:37:52.172Z,64.76
2022-10-29T17:40:20.383Z,61.08
2022-10-29T17:42:50.373Z,57.46
2022-10-29T17:45:20.561Z,56.78
2022-10-29T17:47:48.680Z,57.98
2022-10-29T17:50:19.040Z,59.22
2022-10-29T17:52:46.907Z,60.24
2022-10-29T17:55:14.670Z,60.95
2022-10-29T17:57:42.464Z,64.45
2022-10-29T18:00:11.106Z,64.38
2022-10-29T18:02:39.292Z,61.38
2022-10-29T18:05:07.834Z,57.79
2022-10-29T18:07:35.690Z,56.84
2022-10-29T18:10:04.001Z,57.83
2022-10-29T18:12:32.270Z,59.00
2022-10-29T18:15:00.213Z,60.07
2022-10-29T18:17:29.031Z,60.92
2022-10-29T18:19:56.845Z,64.38
2022-10-29T18:22:24.716Z,64.26
2022-10-29T18:24:52.549Z,61.55
2022-10-29T18:27:21.461Z,57.80
2022-10-29T18:29:49.566Z,57.01
2022-10-29T18:32:17.908Z,58.18
2022-10-29T18:34:46.185Z,59.40
2022-10-29T18:37:13.967Z,60.36
2022-10-29T18:39:41.716Z,61.30
2022-10-29T18:42:10.433Z,64.86
2022-10-29T18:44:39.105Z,64.37
2022-10-29T18:47:06.874Z,61.56
2022-10-29T18:49:34.737Z,58.39
2022-10-29T18:52:02.584Z,57.70
2022-10-29T18:54:30.419Z,59.11
2022-10-29T18:56:58.700Z,60.58
2022-10-29T18:59:26.449Z,61.44
2022-10-29T19:01:55.058Z,65.48
2022-10-29T19:04:23.358Z,64.08
2022-10-29T19:06:51.205Z,61.28
2022-10-29T19:09:19.292Z,57.78
2022-10-29T19:11:55.215Z,57.43
2022-10-29T19:14:26.419Z,58.54
2022-10-29T19:16:56.295Z,60.50
2022-10-29T19:19:24.344Z,61.53
2022-10-29T19:21:52.240Z,65.53
2022-10-29T19:24:20.435Z,64.10
2022-10-29T19:26:48.235Z,61.40
2022-10-29T19:29:16.541Z,59.78
2022-10-29T19:31:44.944Z,56.58
2022-10-29T19:34:12.851Z,56.70
2022-10-29T19:36:40.751Z,58.07
2022-10-29T19:39:08.673Z,59.21
2022-10-29T19:41:36.608Z,60.27
2022-10-29T19:44:04.676Z,61.24
2022-10-29T19:46:32.541Z,65.44
2022-10-29T19:49:00.786Z,64.60
2022-10-29T19:51:29.230Z,61.14
2022-10-29T19:53:58.654Z,57.36
2022-10-29T19:56:26.549Z,56.77
2022-10-29T19:58:54.455Z,58.02
2022-10-29T20:01:22.641Z,59.81
2022-10-29T20:03:50.623Z,60.77
2022-10-29T20:06:18.770Z,61.55
2022-10-29T20:08:46.745Z,65.81
2022-10-29T20:11:14.522Z,64.96
2022-10-29T20:13:42.392Z,61.53
2022-10-29T20:16:14.125Z,58.27
2022-10-29T20:18:42.363Z,57.67
2022-10-29T20:21:10.467Z,58.99
2022-10-29T20:23:38.928Z,59.83
2022-10-29T20:26:07.087Z,61.57
2022-10-29T20:28:35.358Z,65.15
2022-10-29T20:31:10.852Z,64.59
2022-10-29T20:33:39.017Z,61.18
2022-10-29T20:36:07.095Z,57.64
2022-10-29T20:38:35.139Z,57.27
2022-10-29T20:41:02.911Z,58.95
2022-10-29T20:43:32.879Z,59.94
2022-10-29T20:46:02.058Z,61.07
2022-10-29T20:48:30.281Z,64.59
2022-10-29T20:50:58.366Z,64.24
2022-10-29T20:53:26.264Z,61.20
2022-10-29T20:55:54.407Z,57.66
2022-10-29T20:58:22.630Z,57.09
2022-10-29T21:00:50.621Z,58.49
2022-10-29T21:03:18.697Z,60.32
2022-10-29T21:05:46.572Z,61.24
2022-10-29T21:08:14.395Z,64.39
2022-10-29T21:10:42.243Z,64.29
2022-10-29T21:13:10.303Z,60.93
2022-10-29T21:15:38.090Z,57.38
2022-10-29T21:18:05.911Z,57.01
2022-10-29T21:20:33.749Z,58.28
2022-10-29T21:23:01.567Z,59.55
2022-10-29T21:25:29.351Z,60.92
2022-10-29T21:27:57.331Z,64.15
2022-10-29T21:30:25.446Z,64.04
2022-10-29T21:32:54.017Z,61.30
2022-10-29T21:35:22.136Z,59.58
2022-10-29T21:37:50.131Z,57.45
2022-10-29T21:40:17.920Z,57.32
2022-10-29T21:42:45.723Z,58.56
2022-10-29T21:45:13.902Z,59.67
2022-10-29T21:47:43.260Z,60.72
2022-10-29T21:50:11.492Z,64.73
2022-10-29T21:52:40.474Z,63.98
2022-10-29T21:55:08.639Z,61.50
2022-10-29T21:57:36.435Z,60.52
2022-10-29T22:00:06.847Z,57.99
2022-10-29T22:02:34.596Z,57.42
2022-10-29T22:05:02.456Z,58.83
2022-10-29T22:07:30.219Z,60.51
2022-10-29T22:09:58.137Z,61.04
2022-10-29T22:12:25.919Z,65.04
2022-10-29T22:14:53.793Z,64.49
2022-10-29T22:17:21.589Z,62.40
2022-10-29T22:19:49.633Z,60.87
2022-10-29T22:22:17.428Z,59.78
2022-10-29T22:24:45.394Z,58.19
2022-10-29T22:27:13.213Z,57.13
2022-10-29T22:29:40.984Z,59.74
2022-10-29T22:32:08.893Z,60.84
2022-10-29T22:34:36.662Z,60.83
2022-10-29T22:37:04.475Z,64.01
2022-10-29T22:39:32.388Z,64.58
2022-10-29T22:42:00.404Z,62.27
2022-10-29T22:44:28.182Z,60.00
2022-10-29T22:46:56.169Z,56.90
2022-10-29T22:49:24.000Z,56.12
2022-10-29T22:51:53.143Z,57.91
2022-10-29T22:54:23.924Z,59.41
2022-10-29T22:56:51.837Z,59.94
2022-10-29T22:59:19.610Z,61.25
2022-10-29T23:01:52.904Z,64.77
2022-10-29T23:04:30.165Z,65.87
2022-10-29T23:10:01.787Z,60.05
2022-10-29T23:12:45.659Z,56.69
2022-10-29T23:15:15.144Z,55.95
2022-10-29T23:17:45.528Z,57.46
2022-10-29T23:20:14.946Z,58.70
2022-10-29T23:22:45.371Z,59.77
2022-10-29T23:25:19.731Z,60.62
2022-10-29T23:27:58.073Z,60.84
2022-10-29T23:30:32.621Z,64.94
2022-10-29T23:33:03.940Z,65.69
2022-10-29T23:35:37.376Z,61.60
2022-10-29T23:38:05.475Z,57.50
2022-10-29T23:40:33.609Z,57.67
2022-10-29T23:43:01.912Z,58.26
2022-10-29T23:45:30.231Z,59.22
2022-10-29T23:47:58.664Z,59.86
2022-10-29T23:50:26.921Z,61.12
2022-10-29T23:52:55.131Z,65.31
2022-10-29T23:55:23.276Z,64.58
2022-10-29T23:57:51.355Z,60.85
